sensor_id;sensor_type;location;lat;lon;timestamp;P1;durP1;ratioP1;P2;durP2;ratioP2
39370;SDS011;25099;51.946;4.838;2023-04-10T00:00:55;16.17;;;12.65;;
39370;SDS011;25099;51.946;4.838;2023-04-10T00:03:22;13.52;;;12.13;;
39370;SDS011;25099;51.946;4.838;2023-04-10T00:05:50;15.23;;;12.38;;
39370;SDS011;25099;51.946;4.838;2023-04-10T00:08:18;21.15;;;12.32;;
39370;SDS011;25099;51.946;4.838;2023-04-10T00:10:51;13.43;;;12.02;;
39370;SDS011;25099;51.946;4.838;2023-04-10T00:13:21;12.88;;;11.52;;
39370;SDS011;25099;51.946;4.838;2023-04-10T00:15:58;13.20;;;10.90;;
39370;SDS011;25099;51.946;4.838;2023-04-10T00:18:24;16.65;;;12.65;;
39370;SDS011;25099;51.946;4.838;2023-04-10T00:21:05;15.10;;;11.88;;
39370;SDS011;25099;51.946;4.838;2023-04-10T00:23:31;15.05;;;11.70;;
39370;SDS011;25099;51.946;4.838;2023-04-10T00:25:58;13.75;;;12.05;;
39370;SDS011;25099;51.946;4.838;2023-04-10T00:28:36;13.15;;;11.32;;
39370;SDS011;25099;51.946;4.838;2023-04-10T00:31:08;13.52;;;12.13;;
39370;SDS011;25099;51.946;4.838;2023-04-10T00:33:33;13.88;;;11.40;;
39370;SDS011;25099;51.946;4.838;2023-04-10T00:36:11;14.10;;;12.38;;
39370;SDS011;25099;51.946;4.838;2023-04-10T00:41:08;14.43;;;11.90;;
39370;SDS011;25099;51.946;4.838;2023-04-10T00:43:34;15.10;;;12.55;;
39370;SDS011;25099;51.946;4.838;2023-04-10T00:46:14;13.82;;;12.32;;
39370;SDS011;25099;51.946;4.838;2023-04-10T00:48:43;12.40;;;10.98;;
39370;SDS011;25099;51.946;4.838;2023-04-10T00:51:15;13.35;;;11.52;;
39370;SDS011;25099;51.946;4.838;2023-04-10T00:53:43;15.65;;;12.15;;
39370;SDS011;25099;51.946;4.838;2023-04-10T00:56:09;11.32;;;10.23;;
39370;SDS011;25099;51.946;4.838;2023-04-10T00:58:44;13.20;;;11.38;;
39370;SDS011;25099;51.946;4.838;2023-04-10T01:01:09;12.98;;;11.65;;
39370;SDS011;25099;51.946;4.838;2023-04-10T01:03:35;11.85;;;10.65;;
39370;SDS011;25099;51.946;4.838;2023-04-10T01:06:17;13.48;;;11.18;;
39370;SDS011;25099;51.946;4.838;2023-04-10T01:09:04;15.60;;;11.60;;
39370;SDS011;25099;51.946;4.838;2023-04-10T01:20:41;12.75;;;11.45;;
39370;SDS011;25099;51.946;4.838;2023-04-10T01:28:42;13.38;;;10.65;;
39370;SDS011;25099;51.946;4.838;2023-04-10T01:31:18;11.98;;;10.70;;
39370;SDS011;25099;51.946;4.838;2023-04-10T01:33:57;11.60;;;10.20;;
39370;SDS011;25099;51.946;4.838;2023-04-10T01:36:29;14.13;;;10.32;;
39370;SDS011;25099;51.946;4.838;2023-04-10T01:38:58;11.00;;;9.85;;
39370;SDS011;25099;51.946;4.838;2023-04-10T01:41:25;11.77;;;10.25;;
39370;SDS011;25099;51.946;4.838;2023-04-10T01:43:52;12.70;;;10.60;;
39370;SDS011;25099;51.946;4.838;2023-04-10T01:46:27;11.27;;;10.10;;
39370;SDS011;25099;51.946;4.838;2023-04-10T01:48:54;13.07;;;11.10;;
39370;SDS011;25099;51.946;4.838;2023-04-10T01:51:25;10.50;;;9.60;;
39370;SDS011;25099;51.946;4.838;2023-04-10T01:53:51;14.50;;;11.03;;
39370;SDS011;25099;51.946;4.838;2023-04-10T01:56:35;11.63;;;9.88;;
39370;SDS011;25099;51.946;4.838;2023-04-10T01:59:01;10.30;;;9.30;;
39370;SDS011;25099;51.946;4.838;2023-04-10T02:01:43;11.25;;;10.05;;
39370;SDS011;25099;51.946;4.838;2023-04-10T02:04:08;10.00;;;9.10;;
39370;SDS011;25099;51.946;4.838;2023-04-10T02:12:29;10.48;;;9.55;;
39370;SDS011;25099;51.946;4.838;2023-04-10T02:15:12;10.25;;;9.18;;
39370;SDS011;25099;51.946;4.838;2023-04-10T02:17:40;10.63;;;9.50;;
39370;SDS011;25099;51.946;4.838;2023-04-10T02:20:33;11.13;;;8.98;;
39370;SDS011;25099;51.946;4.838;2023-04-10T02:22:59;10.32;;;9.32;;
39370;SDS011;25099;51.946;4.838;2023-04-10T02:25:41;10.20;;;9.20;;
39370;SDS011;25099;51.946;4.838;2023-04-10T02:28:07;10.20;;;8.98;;
39370;SDS011;25099;51.946;4.838;2023-04-10T02:31:06;9.98;;;8.57;;
39370;SDS011;25099;51.946;4.838;2023-04-10T02:33:47;10.38;;;9.35;;
39370;SDS011;25099;51.946;4.838;2023-04-10T02:36:12;10.25;;;9.05;;
39370;SDS011;25099;51.946;4.838;2023-04-10T02:38:41;10.93;;;9.52;;
39370;SDS011;25099;51.946;4.838;2023-04-10T02:41:07;9.95;;;8.98;;
39370;SDS011;25099;51.946;4.838;2023-04-10T02:43:32;10.13;;;9.15;;
39370;SDS011;25099;51.946;4.838;2023-04-10T02:46:13;11.82;;;9.18;;
39370;SDS011;25099;51.946;4.838;2023-04-10T02:51:10;9.88;;;7.88;;
39370;SDS011;25099;51.946;4.838;2023-04-10T02:53:36;9.40;;;8.40;;
39370;SDS011;25099;51.946;4.838;2023-04-10T02:56:17;8.98;;;8.18;;
39370;SDS011;25099;51.946;4.838;2023-04-10T02:58:45;9.52;;;8.55;;
39370;SDS011;25099;51.946;4.838;2023-04-10T03:01:29;9.57;;;8.65;;
39370;SDS011;25099;51.946;4.838;2023-04-10T03:07:17;9.93;;;8.93;;
39370;SDS011;25099;51.946;4.838;2023-04-10T03:09:42;9.63;;;8.75;;
39370;SDS011;25099;51.946;4.838;2023-04-10T03:12:16;9.18;;;8.25;;
39370;SDS011;25099;51.946;4.838;2023-04-10T03:14:42;9.90;;;8.90;;
39370;SDS011;25099;51.946;4.838;2023-04-10T03:17:20;9.48;;;8.48;;
39370;SDS011;25099;51.946;4.838;2023-04-10T03:19:48;8.63;;;7.82;;
39370;SDS011;25099;51.946;4.838;2023-04-10T03:22:25;9.43;;;8.63;;
39370;SDS011;25099;51.946;4.838;2023-04-10T03:24:51;9.88;;;8.25;;
39370;SDS011;25099;51.946;4.838;2023-04-10T03:27:32;8.60;;;7.80;;
39370;SDS011;25099;51.946;4.838;2023-04-10T03:30:08;8.40;;;7.60;;
39370;SDS011;25099;51.946;4.838;2023-04-10T03:32:36;8.90;;;8.05;;
39370;SDS011;25099;51.946;4.838;2023-04-10T03:35:12;8.50;;;7.70;;
39370;SDS011;25099;51.946;4.838;2023-04-10T03:37:37;9.23;;;8.25;;
39370;SDS011;25099;51.946;4.838;2023-04-10T03:40:06;8.40;;;7.60;;
39370;SDS011;25099;51.946;4.838;2023-04-10T03:42:32;8.82;;;8.07;;
39370;SDS011;25099;51.946;4.838;2023-04-10T03:44:59;8.35;;;7.55;;
39370;SDS011;25099;51.946;4.838;2023-04-10T03:47:26;10.07;;;7.63;;
39370;SDS011;25099;51.946;4.838;2023-04-10T03:49:52;8.50;;;7.72;;
39370;SDS011;25099;51.946;4.838;2023-04-10T03:52:17;8.63;;;7.93;;
39370;SDS011;25099;51.946;4.838;2023-04-10T03:54:43;10.20;;;8.13;;
39370;SDS011;25099;51.946;4.838;2023-04-10T03:57:09;9.43;;;8.38;;
39370;SDS011;25099;51.946;4.838;2023-04-10T03:59:34;9.93;;;8.93;;
39370;SDS011;25099;51.946;4.838;2023-04-10T04:02:12;9.55;;;8.70;;
39370;SDS011;25099;51.946;4.838;2023-04-10T04:04:38;11.07;;;8.45;;
39370;SDS011;25099;51.946;4.838;2023-04-10T04:07:13;9.65;;;8.85;;
39370;SDS011;25099;51.946;4.838;2023-04-10T04:09:39;9.23;;;8.32;;
39370;SDS011;25099;51.946;4.838;2023-04-10T04:12:10;8.63;;;7.85;;
39370;SDS011;25099;51.946;4.838;2023-04-10T04:14:37;8.65;;;7.75;;
39370;SDS011;25099;51.946;4.838;2023-04-10T04:17:09;8.90;;;8.10;;
39370;SDS011;25099;51.946;4.838;2023-04-10T04:19:35;9.27;;;8.18;;
39370;SDS011;25099;51.946;4.838;2023-04-10T04:22:10;9.32;;;8.45;;
39370;SDS011;25099;51.946;4.838;2023-04-10T04:24:36;9.02;;;8.13;;
39370;SDS011;25099;51.946;4.838;2023-04-10T04:27:01;7.93;;;7.13;;
39370;SDS011;25099;51.946;4.838;2023-04-10T04:29:33;9.00;;;7.80;;
39370;SDS011;25099;51.946;4.838;2023-04-10T04:31:59;8.23;;;7.43;;
39370;SDS011;25099;51.946;4.838;2023-04-10T04:34:36;8.57;;;7.68;;
39370;SDS011;25099;51.946;4.838;2023-04-10T04:37:11;8.75;;;7.95;;
39370;SDS011;25099;51.946;4.838;2023-04-10T04:39:37;9.02;;;7.75;;
39370;SDS011;25099;51.946;4.838;2023-04-10T04:42:02;9.50;;;8.60;;
39370;SDS011;25099;51.946;4.838;2023-04-10T04:44:28;8.73;;;7.93;;
39370;SDS011;25099;51.946;4.838;2023-04-10T04:46:53;9.65;;;8.73;;
39370;SDS011;25099;51.946;4.838;2023-04-10T04:49:28;8.77;;;8.00;;
39370;SDS011;25099;51.946;4.838;2023-04-10T04:51:54;8.25;;;7.55;;
39370;SDS011;25099;51.946;4.838;2023-04-10T04:54:19;8.27;;;7.57;;
39370;SDS011;25099;51.946;4.838;2023-04-10T04:56:45;8.23;;;7.47;;
39370;SDS011;25099;51.946;4.838;2023-04-10T04:59:25;9.68;;;8.60;;
39370;SDS011;25099;51.946;4.838;2023-04-10T05:01:51;9.45;;;8.10;;
39370;SDS011;25099;51.946;4.838;2023-04-10T05:04:17;9.45;;;8.55;;
39370;SDS011;25099;51.946;4.838;2023-04-10T05:06:44;8.45;;;7.65;;
39370;SDS011;25099;51.946;4.838;2023-04-10T05:09:10;9.50;;;8.63;;
39370;SDS011;25099;51.946;4.838;2023-04-10T05:11:35;9.40;;;8.48;;
39370;SDS011;25099;51.946;4.838;2023-04-10T05:14:01;8.75;;;7.75;;
39370;SDS011;25099;51.946;4.838;2023-04-10T05:16:26;10.07;;;8.30;;
39370;SDS011;25099;51.946;4.838;2023-04-10T05:18:52;9.05;;;8.25;;
39370;SDS011;25099;51.946;4.838;2023-04-10T05:21:17;8.95;;;8.15;;
39370;SDS011;25099;51.946;4.838;2023-04-10T05:23:43;9.48;;;8.10;;
39370;SDS011;25099;51.946;4.838;2023-04-10T05:26:08;12.98;;;8.48;;
39370;SDS011;25099;51.946;4.838;2023-04-10T05:28:34;8.65;;;7.93;;
39370;SDS011;25099;51.946;4.838;2023-04-10T05:31:00;8.00;;;7.30;;
39370;SDS011;25099;51.946;4.838;2023-04-10T05:33:25;9.85;;;7.50;;
39370;SDS011;25099;51.946;4.838;2023-04-10T05:35:51;8.32;;;7.53;;
39370;SDS011;25099;51.946;4.838;2023-04-10T05:38:17;11.80;;;7.15;;
39370;SDS011;25099;51.946;4.838;2023-04-10T05:40:46;7.88;;;7.18;;
39370;SDS011;25099;51.946;4.838;2023-04-10T05:43:11;8.13;;;7.43;;
39370;SDS011;25099;51.946;4.838;2023-04-10T05:45:37;8.95;;;8.10;;
39370;SDS011;25099;51.946;4.838;2023-04-10T05:48:04;8.70;;;7.82;;
39370;SDS011;25099;51.946;4.838;2023-04-10T05:50:30;8.75;;;7.97;;
39370;SDS011;25099;51.946;4.838;2023-04-10T05:53:03;12.38;;;7.95;;
39370;SDS011;25099;51.946;4.838;2023-04-10T05:55:31;9.35;;;8.35;;
39370;SDS011;25099;51.946;4.838;2023-04-10T05:57:57;9.25;;;8.40;;
39370;SDS011;25099;51.946;4.838;2023-04-10T06:00:28;8.38;;;7.57;;
39370;SDS011;25099;51.946;4.838;2023-04-10T06:02:54;11.60;;;8.52;;
39370;SDS011;25099;51.946;4.838;2023-04-10T06:05:20;8.88;;;8.15;;
39370;SDS011;25099;51.946;4.838;2023-04-10T06:07:45;8.75;;;7.85;;
39370;SDS011;25099;51.946;4.838;2023-04-10T06:10:11;8.05;;;7.35;;
39370;SDS011;25099;51.946;4.838;2023-04-10T06:12:36;9.13;;;8.23;;
39370;SDS011;25099;51.946;4.838;2023-04-10T06:15:02;9.48;;;7.85;;
39370;SDS011;25099;51.946;4.838;2023-04-10T06:17:28;9.60;;;8.70;;
39370;SDS011;25099;51.946;4.838;2023-04-10T06:19:54;9.98;;;8.73;;
39370;SDS011;25099;51.946;4.838;2023-04-10T06:22:20;8.00;;;7.30;;
39370;SDS011;25099;51.946;4.838;2023-04-10T06:24:46;8.82;;;7.97;;
39370;SDS011;25099;51.946;4.838;2023-04-10T06:27:12;9.18;;;7.95;;
39370;SDS011;25099;51.946;4.838;2023-04-10T06:29:37;9.63;;;8.73;;
39370;SDS011;25099;51.946;4.838;2023-04-10T06:32:03;8.43;;;7.63;;
39370;SDS011;25099;51.946;4.838;2023-04-10T06:34:28;10.05;;;8.27;;
39370;SDS011;25099;51.946;4.838;2023-04-10T06:36:54;8.57;;;7.82;;
39370;SDS011;25099;51.946;4.838;2023-04-10T06:39:20;9.02;;;8.18;;
39370;SDS011;25099;51.946;4.838;2023-04-10T06:41:45;9.68;;;8.68;;
39370;SDS011;25099;51.946;4.838;2023-04-10T06:44:11;8.55;;;7.75;;
39370;SDS011;25099;51.946;4.838;2023-04-10T06:46:36;9.20;;;8.30;;
39370;SDS011;25099;51.946;4.838;2023-04-10T06:49:08;12.93;;;8.65;;
39370;SDS011;25099;51.946;4.838;2023-04-10T06:51:36;8.52;;;7.72;;
39370;SDS011;25099;51.946;4.838;2023-04-10T06:54:01;8.68;;;7.85;;
39370;SDS011;25099;51.946;4.838;2023-04-10T06:56:42;10.20;;;8.85;;
39370;SDS011;25099;51.946;4.838;2023-04-10T06:59:08;8.70;;;7.90;;
39370;SDS011;25099;51.946;4.838;2023-04-10T07:01:34;7.90;;;7.22;;
39370;SDS011;25099;51.946;4.838;2023-04-10T07:03:59;9.20;;;8.27;;
39370;SDS011;25099;51.946;4.838;2023-04-10T07:06:25;8.93;;;8.02;;
39370;SDS011;25099;51.946;4.838;2023-04-10T07:08:51;9.50;;;8.60;;
39370;SDS011;25099;51.946;4.838;2023-04-10T07:11:16;9.20;;;7.97;;
39370;SDS011;25099;51.946;4.838;2023-04-10T07:13:42;9.20;;;8.30;;
39370;SDS011;25099;51.946;4.838;2023-04-10T07:16:07;8.95;;;8.15;;
39370;SDS011;25099;51.946;4.838;2023-04-10T07:18:37;12.40;;;8.50;;
39370;SDS011;25099;51.946;4.838;2023-04-10T07:21:10;8.82;;;8.02;;
39370;SDS011;25099;51.946;4.838;2023-04-10T07:23:37;9.95;;;9.05;;
39370;SDS011;25099;51.946;4.838;2023-04-10T07:26:02;10.07;;;8.68;;
39370;SDS011;25099;51.946;4.838;2023-04-10T07:28:28;12.02;;;8.65;;
39370;SDS011;25099;51.946;4.838;2023-04-10T07:30:53;10.23;;;8.55;;
39370;SDS011;25099;51.946;4.838;2023-04-10T07:33:19;9.50;;;8.45;;
39370;SDS011;25099;51.946;4.838;2023-04-10T07:35:45;9.32;;;8.52;;
39370;SDS011;25099;51.946;4.838;2023-04-10T07:38:11;12.05;;;9.05;;
39370;SDS011;25099;51.946;4.838;2023-04-10T07:40:37;9.48;;;8.60;;
39370;SDS011;25099;51.946;4.838;2023-04-10T07:43:02;12.07;;;9.15;;
39370;SDS011;25099;51.946;4.838;2023-04-10T07:45:28;10.40;;;9.38;;
39370;SDS011;25099;51.946;4.838;2023-04-10T07:47:54;10.32;;;8.60;;
39370;SDS011;25099;51.946;4.838;2023-04-10T07:50:19;9.35;;;8.55;;
39370;SDS011;25099;51.946;4.838;2023-04-10T07:52:45;9.30;;;8.20;;
39370;SDS011;25099;51.946;4.838;2023-04-10T07:55:12;9.20;;;8.40;;
39370;SDS011;25099;51.946;4.838;2023-04-10T07:57:38;10.65;;;9.48;;
39370;SDS011;25099;51.946;4.838;2023-04-10T08:00:03;9.95;;;8.95;;
39370;SDS011;25099;51.946;4.838;2023-04-10T08:02:29;10.13;;;9.07;;
39370;SDS011;25099;51.946;4.838;2023-04-10T08:04:55;9.25;;;8.13;;
39370;SDS011;25099;51.946;4.838;2023-04-10T08:07:21;10.15;;;8.95;;
39370;SDS011;25099;51.946;4.838;2023-04-10T08:09:47;9.50;;;8.60;;
39370;SDS011;25099;51.946;4.838;2023-04-10T08:12:13;9.63;;;8.60;;
39370;SDS011;25099;51.946;4.838;2023-04-10T08:14:38;9.82;;;8.82;;
39370;SDS011;25099;51.946;4.838;2023-04-10T08:17:04;10.18;;;9.18;;
39370;SDS011;25099;51.946;4.838;2023-04-10T08:19:30;9.90;;;8.52;;
39370;SDS011;25099;51.946;4.838;2023-04-10T08:21:55;10.63;;;9.55;;
39370;SDS011;25099;51.946;4.838;2023-04-10T08:24:21;11.43;;;8.90;;
39370;SDS011;25099;51.946;4.838;2023-04-10T08:26:47;10.35;;;8.00;;
39370;SDS011;25099;51.946;4.838;2023-04-10T08:29:12;9.50;;;8.60;;
39370;SDS011;25099;51.946;4.838;2023-04-10T08:31:38;13.02;;;9.13;;
39370;SDS011;25099;51.946;4.838;2023-04-10T08:34:13;9.48;;;8.52;;
39370;SDS011;25099;51.946;4.838;2023-04-10T08:36:40;9.95;;;9.00;;
39370;SDS011;25099;51.946;4.838;2023-04-10T08:39:12;12.68;;;9.40;;
39370;SDS011;25099;51.946;4.838;2023-04-10T08:41:39;9.40;;;8.55;;
39370;SDS011;25099;51.946;4.838;2023-04-10T08:44:05;10.43;;;8.18;;
39370;SDS011;25099;51.946;4.838;2023-04-10T08:46:30;10.35;;;8.73;;
39370;SDS011;25099;51.946;4.838;2023-04-10T08:49:00;9.68;;;8.77;;
39370;SDS011;25099;51.946;4.838;2023-04-10T08:51:31;9.63;;;8.73;;
39370;SDS011;25099;51.946;4.838;2023-04-10T08:54:05;9.70;;;8.77;;
39370;SDS011;25099;51.946;4.838;2023-04-10T08:56:34;10.25;;;9.25;;
39370;SDS011;25099;51.946;4.838;2023-04-10T08:59:03;10.55;;;9.52;;
39370;SDS011;25099;51.946;4.838;2023-04-10T09:01:29;10.40;;;9.40;;
39370;SDS011;25099;51.946;4.838;2023-04-10T09:03:55;12.85;;;8.85;;
39370;SDS011;25099;51.946;4.838;2023-04-10T09:06:21;9.27;;;8.38;;
39370;SDS011;25099;51.946;4.838;2023-04-10T09:08:51;9.65;;;8.65;;
39370;SDS011;25099;51.946;4.838;2023-04-10T09:11:16;10.38;;;9.38;;
39370;SDS011;25099;51.946;4.838;2023-04-10T09:13:42;9.25;;;8.45;;
39370;SDS011;25099;51.946;4.838;2023-04-10T09:16:09;9.70;;;8.80;;
39370;SDS011;25099;51.946;4.838;2023-04-10T09:18:42;9.60;;;8.70;;
39370;SDS011;25099;51.946;4.838;2023-04-10T09:21:16;9.57;;;8.70;;
39370;SDS011;25099;51.946;4.838;2023-04-10T09:23:43;10.95;;;9.95;;
39370;SDS011;25099;51.946;4.838;2023-04-10T09:26:29;10.18;;;9.20;;
39370;SDS011;25099;51.946;4.838;2023-04-10T09:31:29;10.98;;;9.98;;
39370;SDS011;25099;51.946;4.838;2023-04-10T09:34:10;9.93;;;9.10;;
39370;SDS011;25099;51.946;4.838;2023-04-10T09:36:43;10.00;;;9.00;;
39370;SDS011;25099;51.946;4.838;2023-04-10T09:39:17;10.20;;;9.20;;
39370;SDS011;25099;51.946;4.838;2023-04-10T09:41:52;9.90;;;9.00;;
39370;SDS011;25099;51.946;4.838;2023-04-10T09:44:32;9.90;;;8.90;;
39370;SDS011;25099;51.946;4.838;2023-04-10T09:49:44;9.98;;;9.07;;
39370;SDS011;25099;51.946;4.838;2023-04-10T09:52:21;10.45;;;9.48;;
39370;SDS011;25099;51.946;4.838;2023-04-10T09:54:53;10.77;;;9.60;;
39370;SDS011;25099;51.946;4.838;2023-04-10T09:57:20;10.93;;;9.80;;
39370;SDS011;25099;51.946;4.838;2023-04-10T09:59:53;10.55;;;9.45;;
39370;SDS011;25099;51.946;4.838;2023-04-10T10:02:21;10.75;;;9.75;;
39370;SDS011;25099;51.946;4.838;2023-04-10T10:04:48;11.25;;;10.15;;
39370;SDS011;25099;51.946;4.838;2023-04-10T10:07:15;15.60;;;10.57;;
39370;SDS011;25099;51.946;4.838;2023-04-10T10:09:42;11.07;;;9.80;;
39370;SDS011;25099;51.946;4.838;2023-04-10T10:12:09;11.95;;;10.85;;
39370;SDS011;25099;51.946;4.838;2023-04-10T10:14:38;12.57;;;11.27;;
39370;SDS011;25099;51.946;4.838;2023-04-10T10:19:57;14.68;;;10.98;;
39370;SDS011;25099;51.946;4.838;2023-04-10T10:22:31;13.07;;;11.68;;
39370;SDS011;25099;51.946;4.838;2023-04-10T10:24:59;22.05;;;11.65;;
39370;SDS011;25099;51.946;4.838;2023-04-10T10:27:26;14.27;;;11.25;;
39370;SDS011;25099;51.946;4.838;2023-04-10T10:29:54;15.18;;;11.75;;
39370;SDS011;25099;51.946;4.838;2023-04-10T10:32:23;22.75;;;12.27;;
39370;SDS011;25099;51.946;4.838;2023-04-10T10:34:50;13.05;;;11.52;;
39370;SDS011;25099;51.946;4.838;2023-04-10T10:37:17;14.18;;;11.18;;
39370;SDS011;25099;51.946;4.838;2023-04-10T10:39:49;14.23;;;12.45;;
39370;SDS011;25099;51.946;4.838;2023-04-10T10:47:39;15.10;;;11.07;;
39370;SDS011;25099;51.946;4.838;2023-04-10T10:50:09;12.70;;;11.00;;
39370;SDS011;25099;51.946;4.838;2023-04-10T10:52:45;12.60;;;11.27;;
39370;SDS011;25099;51.946;4.838;2023-04-10T10:57:59;11.50;;;10.25;;
39370;SDS011;25099;51.946;4.838;2023-04-10T11:01:04;13.13;;;11.30;;
39370;SDS011;25099;51.946;4.838;2023-04-10T11:03:28;12.02;;;10.00;;
39370;SDS011;25099;51.946;4.838;2023-04-10T11:11:03;10.55;;;9.55;;
39370;SDS011;25099;51.946;4.838;2023-04-10T11:13:37;10.18;;;9.15;;
39370;SDS011;25099;51.946;4.838;2023-04-10T11:21:20;9.75;;;8.70;;
39370;SDS011;25099;51.946;4.838;2023-04-10T11:29:31;9.68;;;8.15;;
39370;SDS011;25099;51.946;4.838;2023-04-10T11:31:57;9.48;;;8.68;;
39370;SDS011;25099;51.946;4.838;2023-04-10T11:34:27;8.65;;;7.95;;
39370;SDS011;25099;51.946;4.838;2023-04-10T11:36:54;9.02;;;7.82;;
39370;SDS011;25099;51.946;4.838;2023-04-10T11:39:20;8.50;;;7.60;;
39370;SDS011;25099;51.946;4.838;2023-04-10T11:41:47;11.90;;;7.22;;
39370;SDS011;25099;51.946;4.838;2023-04-10T11:44:14;8.25;;;7.45;;
39370;SDS011;25099;51.946;4.838;2023-04-10T11:46:42;8.35;;;7.43;;
39370;SDS011;25099;51.946;4.838;2023-04-10T11:49:16;8.38;;;7.63;;
39370;SDS011;25099;51.946;4.838;2023-04-10T11:51:46;6.65;;;6.05;;
39370;SDS011;25099;51.946;4.838;2023-04-10T11:54:14;9.02;;;6.43;;
39370;SDS011;25099;51.946;4.838;2023-04-10T11:56:41;7.03;;;6.43;;
39370;SDS011;25099;51.946;4.838;2023-04-10T11:59:26;7.18;;;6.47;;
39370;SDS011;25099;51.946;4.838;2023-04-10T12:01:53;6.47;;;5.88;;
39370;SDS011;25099;51.946;4.838;2023-04-10T12:04:35;8.27;;;5.78;;
39370;SDS011;25099;51.946;4.838;2023-04-10T12:07:01;6.78;;;6.20;;
39370;SDS011;25099;51.946;4.838;2023-04-10T12:09:26;8.15;;;6.20;;
39370;SDS011;25099;51.946;4.838;2023-04-10T12:11:56;6.80;;;6.07;;
39370;SDS011;25099;51.946;4.838;2023-04-10T12:14:31;8.93;;;5.85;;
39370;SDS011;25099;51.946;4.838;2023-04-10T12:19:25;7.95;;;6.20;;
39370;SDS011;25099;51.946;4.838;2023-04-10T12:21:51;5.80;;;5.30;;
39370;SDS011;25099;51.946;4.838;2023-04-10T12:27:17;8.57;;;5.40;;
39370;SDS011;25099;51.946;4.838;2023-04-10T12:29:46;6.20;;;5.60;;
39370;SDS011;25099;51.946;4.838;2023-04-10T12:32:12;9.63;;;7.72;;
39370;SDS011;25099;51.946;4.838;2023-04-10T12:34:38;7.05;;;5.60;;
39370;SDS011;25099;51.946;4.838;2023-04-10T12:37:04;6.47;;;5.97;;
39370;SDS011;25099;51.946;4.838;2023-04-10T12:39:30;6.20;;;5.22;;
39370;SDS011;25099;51.946;4.838;2023-04-10T12:44:51;9.20;;;4.88;;
39370;SDS011;25099;51.946;4.838;2023-04-10T12:47:21;8.75;;;4.90;;
39370;SDS011;25099;51.946;4.838;2023-04-10T12:52:31;8.90;;;5.85;;
39370;SDS011;25099;51.946;4.838;2023-04-10T12:57:55;5.95;;;5.40;;
39370;SDS011;25099;51.946;4.838;2023-04-10T13:00:20;7.03;;;4.75;;
39370;SDS011;25099;51.946;4.838;2023-04-10T13:02:47;6.00;;;5.45;;
39370;SDS011;25099;51.946;4.838;2023-04-10T13:05:13;6.40;;;5.90;;
39370;SDS011;25099;51.946;4.838;2023-04-10T13:07:39;5.43;;;5.03;;
39370;SDS011;25099;51.946;4.838;2023-04-10T13:10:05;5.90;;;5.35;;
39370;SDS011;25099;51.946;4.838;2023-04-10T13:12:32;6.20;;;5.60;;
39370;SDS011;25099;51.946;4.838;2023-04-10T13:14:59;6.43;;;5.82;;
39370;SDS011;25099;51.946;4.838;2023-04-10T13:17:25;7.18;;;6.57;;
39370;SDS011;25099;51.946;4.838;2023-04-10T13:19:51;6.45;;;5.95;;
39370;SDS011;25099;51.946;4.838;2023-04-10T13:22:17;7.10;;;6.38;;
39370;SDS011;25099;51.946;4.838;2023-04-10T13:24:42;7.20;;;6.10;;
39370;SDS011;25099;51.946;4.838;2023-04-10T13:27:09;7.18;;;6.20;;
39370;SDS011;25099;51.946;4.838;2023-04-10T13:29:35;9.32;;;6.40;;
39370;SDS011;25099;51.946;4.838;2023-04-10T13:32:01;9.20;;;6.43;;
39370;SDS011;25099;51.946;4.838;2023-04-10T13:34:29;8.68;;;5.88;;
39370;SDS011;25099;51.946;4.838;2023-04-10T13:36:55;9.43;;;6.75;;
39370;SDS011;25099;51.946;4.838;2023-04-10T13:39:20;7.63;;;6.85;;
39370;SDS011;25099;51.946;4.838;2023-04-10T13:41:46;7.22;;;6.60;;
39370;SDS011;25099;51.946;4.838;2023-04-10T13:44:21;7.72;;;7.03;;
39370;SDS011;25099;51.946;4.838;2023-04-10T13:46:46;7.70;;;7.07;;
39370;SDS011;25099;51.946;4.838;2023-04-10T13:49:12;7.20;;;6.53;;
39370;SDS011;25099;51.946;4.838;2023-04-10T13:51:42;7.03;;;6.28;;
39370;SDS011;25099;51.946;4.838;2023-04-10T13:54:08;7.35;;;6.00;;
39370;SDS011;25099;51.946;4.838;2023-04-10T13:56:34;6.15;;;5.65;;
39370;SDS011;25099;51.946;4.838;2023-04-10T13:59:00;6.28;;;5.70;;
39370;SDS011;25099;51.946;4.838;2023-04-10T14:01:26;6.05;;;5.30;;
39370;SDS011;25099;51.946;4.838;2023-04-10T14:03:51;5.30;;;4.80;;
39370;SDS011;25099;51.946;4.838;2023-04-10T14:06:17;6.00;;;5.30;;
39370;SDS011;25099;51.946;4.838;2023-04-10T14:08:43;5.70;;;5.20;;
39370;SDS011;25099;51.946;4.838;2023-04-10T14:11:08;10.50;;;5.57;;
39370;SDS011;25099;51.946;4.838;2023-04-10T14:13:34;5.80;;;4.97;;
39370;SDS011;25099;51.946;4.838;2023-04-10T14:15:59;6.32;;;5.65;;
39370;SDS011;25099;51.946;4.838;2023-04-10T14:18:25;7.78;;;5.50;;
39370;SDS011;25099;51.946;4.838;2023-04-10T14:20:50;6.00;;;5.32;;
39370;SDS011;25099;51.946;4.838;2023-04-10T14:23:16;5.85;;;5.18;;
39370;SDS011;25099;51.946;4.838;2023-04-10T14:25:45;7.55;;;6.53;;
39370;SDS011;25099;51.946;4.838;2023-04-10T14:28:11;6.30;;;5.78;;
39370;SDS011;25099;51.946;4.838;2023-04-10T14:30:46;6.15;;;5.65;;
39370;SDS011;25099;51.946;4.838;2023-04-10T14:33:13;8.20;;;5.50;;
39370;SDS011;25099;51.946;4.838;2023-04-10T14:35:39;6.28;;;5.72;;
39370;SDS011;25099;51.946;4.838;2023-04-10T14:38:05;7.50;;;5.57;;
39370;SDS011;25099;51.946;4.838;2023-04-10T14:40:30;9.02;;;6.32;;
39370;SDS011;25099;51.946;4.838;2023-04-10T14:42:56;6.65;;;6.05;;
39370;SDS011;25099;51.946;4.838;2023-04-10T14:45:21;6.55;;;6.05;;
39370;SDS011;25099;51.946;4.838;2023-04-10T14:47:47;6.78;;;6.15;;
39370;SDS011;25099;51.946;4.838;2023-04-10T14:50:13;7.13;;;6.43;;
39370;SDS011;25099;51.946;4.838;2023-04-10T14:52:38;7.28;;;6.68;;
39370;SDS011;25099;51.946;4.838;2023-04-10T14:55:04;7.32;;;6.63;;
39370;SDS011;25099;51.946;4.838;2023-04-10T14:57:30;7.03;;;6.47;;
39370;SDS011;25099;51.946;4.838;2023-04-10T14:59:55;6.90;;;5.90;;
39370;SDS011;25099;51.946;4.838;2023-04-10T15:02:21;6.05;;;5.55;;
39370;SDS011;25099;51.946;4.838;2023-04-10T15:04:47;8.23;;;6.45;;
39370;SDS011;25099;51.946;4.838;2023-04-10T15:07:13;7.53;;;6.82;;
39370;SDS011;25099;51.946;4.838;2023-04-10T15:09:38;6.28;;;5.68;;
39370;SDS011;25099;51.946;4.838;2023-04-10T15:12:04;6.18;;;5.57;;
39370;SDS011;25099;51.946;4.838;2023-04-10T15:14:30;7.75;;;6.38;;
39370;SDS011;25099;51.946;4.838;2023-04-10T15:16:56;5.82;;;5.30;;
39370;SDS011;25099;51.946;4.838;2023-04-10T15:19:22;6.30;;;5.38;;
39370;SDS011;25099;51.946;4.838;2023-04-10T15:21:47;8.05;;;5.60;;
39370;SDS011;25099;51.946;4.838;2023-04-10T15:24:13;6.43;;;5.80;;
39370;SDS011;25099;51.946;4.838;2023-04-10T15:26:42;7.25;;;6.53;;
39370;SDS011;25099;51.946;4.838;2023-04-10T15:29:11;6.88;;;6.18;;
39370;SDS011;25099;51.946;4.838;2023-04-10T15:31:37;6.78;;;6.13;;
39370;SDS011;25099;51.946;4.838;2023-04-10T15:34:03;7.47;;;6.78;;
39370;SDS011;25099;51.946;4.838;2023-04-10T15:36:28;7.60;;;7.00;;
39370;SDS011;25099;51.946;4.838;2023-04-10T15:38:55;8.90;;;7.78;;
39370;SDS011;25099;51.946;4.838;2023-04-10T15:41:23;8.43;;;7.60;;
39370;SDS011;25099;51.946;4.838;2023-04-10T15:43:49;10.30;;;9.27;;
39370;SDS011;25099;51.946;4.838;2023-04-10T15:46:15;11.18;;;10.10;;
39370;SDS011;25099;51.946;4.838;2023-04-10T15:48:43;14.70;;;10.20;;
39370;SDS011;25099;51.946;4.838;2023-04-10T15:51:09;11.63;;;10.50;;
39370;SDS011;25099;51.946;4.838;2023-04-10T15:53:35;10.27;;;9.27;;
39370;SDS011;25099;51.946;4.838;2023-04-10T15:56:04;11.57;;;10.38;;
39370;SDS011;25099;51.946;4.838;2023-04-10T15:58:31;10.18;;;8.63;;
39370;SDS011;25099;51.946;4.838;2023-04-10T16:00:57;8.68;;;7.85;;
39370;SDS011;25099;51.946;4.838;2023-04-10T16:03:23;9.55;;;8.57;;